Аэропорт
Yangyang International Airport (RKNY)

 RKNY / YNY

Korea, Republic of
KR-42
Sokcho / Gangneung
 38.06130, 128.66901  / 241 ft

 RKNY 201700Z AUTO 24005KT 6000 NCD 06/M04 Q1032
 TAF RKNY 201100Z 2012/2118 25008KT CAVOK TN04/2022Z TX13/2105Z BECMG 2102/2103 16006KT 9999 FEW030 BKN150 BECMG 2115/2116 26010KT 4200 -RA FEW010 BKN030 BKN100

2020 © VATRUS division (Privacy Policy)